メインページ
METAR-TAF:

METAR-TAF

空港 :

ボゴタ, コロンビア

エルドラド国際空港

緯度: 04-43N, 経度: 074-09W, 海抜: 2547m

現時点の気象観測

当レポートは37分前の21:00(UTC)に作成
北東の風 5kt
気温 21°C
湿度 43%
気圧 1023 hPa
視程10km以上
高度2300ftの雲は散在している

METAR: SKBO 232100Z 04005KT 9999 SCT023 21/08 A3021

時間: 16:37 (21:37 UTC)

予報

当レポートは4時間37分前の17:00(UTC)に作成
予報は23日の 18時(UTC)から 24日の 18時(UTC)まで有効
東/南東の風 7kt
視程10km以上
高度1700ftの千切れ雲あり
高度20000ftの雲は散在している
23日の 18時(UTC)から 23日の 20時(UTC)まで一時的に
霧雨
23日の 19時(UTC)から 23日の 23時(UTC)まで一時的に
西/北西の風 6kt
23日の 20時(UTC)から 23日の 22時(UTC)まで一時的に
高度1700ftの雲は散在している, 積乱雲.
近辺でにわか雨
24日の 01時(UTC)から 24日の 03時(UTC)まで徐々に
北/北東の風 7kt
24日の 09時(UTC)から 24日の 14時(UTC)まで一時的に
視程: 8000m
高度2000ftの千切れ雲あり

TAF: SKBO 231700Z 2318/2418 12007KT 9999 BKN017 SCT200 TEMPO 2318/2320 DZ TEMPO 2319/2323 29006KT TEMPO 2320/2322 VCSH SCT017CB BECMG 2401/2403 02007KT TEMPO 2409/2414 8000 BKN020 TX21/2318Z TN10/2411Z

4,000以上の空港の気象観測と天気予報(METAR報とTAF報)

利用可能な観測所は地図上に黄色い丸と赤い丸で示す。

丸の上にカーソルを重ねると観測所名を参照できる。

次にクリックすると気象観測と天気予報を参照できる。

マップの切り替え:黒色「×」印の緑ボタンをクリックして拡大、「-」印の緑ボタンをクリックして縮小、緑色の三角印をクリックして隣りの地図に切り替え


METAR-TAF: